Terminal Aerodrome Forecast
Issued by NWS Paducah, KY

Home | Current Version | Previous Version | Text Only | Print | Product List | Glossary On
Versions: 1 2 3 4 5 6 7 8 9 10 11 12 13 14 15 16
000
FTUS43 KPAH 260704 AAA
TAFEVV
TAF AMD
KEVV 260704Z 2607/2706 02012KT 3SM -RA BR SCT035 OVC050
      TEMPO 2607/2608 1SM TSRA BR OVC035CB
     FM260900 34012G21KT 4SM -SHRA BR BKN015
     FM262000 34009KT P6SM SCT250=

USA.gov is the U.S. government's official web portal to all federal, state and local government web resources and services.